Time;durP1;ratioP1;P1;durP2;ratioP2;P2;SDS_P1;SDS_P2;PMS_P1;PMS_P2;Temp;Humidity;BMP_temperature;BMP_pressure;BME280_temperature;BME280_humidity;BME280_pressure;Samples;Min_cycle;Max_cycle;Signal;HPM_P1;HPM_P2
2023/12/18 00:01:24;;;;;;;11.30;3.10;;;14.60;99.90;;;;;;4969987;28;20490;-35
2023/12/18 00:03:50;;;;;;;12.27;3.72;;;14.50;1.00;;;;;;4971444;28;20054;-35
2023/12/18 00:06:16;;;;;;;11.20;3.45;;;13.90;99.90;;;;;;4970935;28;20307;-34
2023/12/18 00:08:41;;;;;;;11.02;2.90;;;14.50;99.90;;;;;;4971400;28;20061;-35
2023/12/18 00:11:07;;;;;;;9.57;3.17;;;14.30;99.90;;;;;;4971374;28;20114;-37
2023/12/18 00:13:32;;;;;;;12.23;3.35;;;14.40;99.90;;;;;;4971113;28;20516;-35
2023/12/18 00:15:58;;;;;;;10.68;3.17;;;14.30;99.90;;;;;;4970529;28;20046;-37
2023/12/18 00:18:23;;;;;;;12.32;3.88;;;14.60;99.90;;;;;;4971169;28;20039;-39
2023/12/18 00:20:50;;;;;;;10.93;3.33;;;14.80;99.90;;;;;;4971140;28;20042;-37
2023/12/18 00:23:16;;;;;;;9.25;2.92;;;14.60;99.90;;;;;;4969920;28;20077;-35
2023/12/18 00:25:43;;;;;;;11.35;3.10;;;13.90;99.90;;;;;;4969318;28;20117;-36
2023/12/18 00:28:08;;;;;;;14.05;3.35;;;14.40;99.90;;;;;;4973103;28;20050;-37
2023/12/18 00:30:34;;;;;;;11.57;3.40;;;14.10;99.90;;;;;;4971140;28;20046;-35
2023/12/18 00:33:00;;;;;;;9.88;3.10;;;13.80;99.90;;;;;;4971000;28;20027;-37
2023/12/18 00:35:25;;;;;;;14.07;3.45;;;14.40;99.90;;;;;;4970967;28;20109;-35
2023/12/18 00:37:51;;;;;;;11.60;3.83;;;14.40;99.90;;;;;;4970991;28;20043;-35
2023/12/18 00:40:16;;;;;;;10.98;3.72;;;14.20;99.90;;;;;;4970768;28;20442;-35
2023/12/18 00:42:42;;;;;;;11.02;3.50;;;14.00;99.90;;;;;;4970743;28;20074;-37
2023/12/18 00:45:08;;;;;;;10.70;3.38;;;14.20;99.90;;;;;;4970778;28;20625;-35
2023/12/18 00:47:33;;;;;;;11.10;3.05;;;14.10;99.90;;;;;;4973587;28;20038;-35
2023/12/18 00:49:59;;;;;;;12.40;3.85;;;14.10;99.90;;;;;;4977162;28;20062;-37
2023/12/18 00:52:25;;;;;;;11.00;3.22;;;14.80;99.90;;;;;;4976932;28;20038;-36
2023/12/18 00:54:50;;;;;;;10.77;3.65;;;14.20;99.90;;;;;;4976589;28;20050;-39
2023/12/18 00:57:16;;;;;;;9.48;2.90;;;13.70;99.90;;;;;;4975842;28;20118;-35
2023/12/18 00:59:41;;;;;;;10.48;3.38;;;13.50;99.90;;;;;;4977263;28;20027;-35
2023/12/18 01:02:07;;;;;;;8.77;3.00;;;14.10;99.90;;;;;;4977503;28;20506;-37
2023/12/18 01:04:33;;;;;;;9.80;3.03;;;14.20;99.90;;;;;;4977062;28;20130;-35
2023/12/18 01:06:58;;;;;;;12.80;3.22;;;14.30;99.90;;;;;;4976664;28;20046;-35
2023/12/18 01:09:24;;;;;;;10.73;2.80;;;13.50;99.90;;;;;;4976906;28;20047;-36
2023/12/18 01:11:50;;;;;;;7.70;2.22;;;14.10;99.90;;;;;;4977237;28;20046;-35
2023/12/18 01:14:16;;;;;;;9.75;2.65;;;13.80;99.90;;;;;;4977067;28;20053;-34
2023/12/18 01:16:42;;;;;;;7.82;2.85;;;14.10;99.90;;;;;;4976665;28;20034;-36
2023/12/18 01:19:07;;;;;;;9.73;3.13;;;13.40;99.90;;;;;;4977186;28;20050;-38
2023/12/18 01:21:34;;;;;;;6.85;2.80;;;13.60;99.90;;;;;;4976083;28;20034;-37
2023/12/18 01:23:59;;;;;;;11.30;3.63;;;14.00;99.90;;;;;;4991956;28;20458;-37
2023/12/18 01:26:25;;;;;;;11.50;3.45;;;13.70;99.90;;;;;;4975049;28;20049;-35
2023/12/18 01:28:51;;;;;;;11.63;3.15;;;14.10;99.90;;;;;;4976506;28;20042;-37
2023/12/18 01:31:23;;;;;;;9.95;2.97;;;14.00;99.90;;;;;;4976848;28;20049;-35
2023/12/18 01:33:51;;;;;;;11.60;2.97;;;13.80;99.90;;;;;;4976904;28;20081;-37
2023/12/18 01:36:17;;;;;;;8.75;2.20;;;13.70;99.90;;;;;;4976650;28;21179;-37
2023/12/18 01:38:42;;;;;;;10.07;3.10;;;13.70;99.90;;;;;;4976578;28;20054;-35
2023/12/18 01:41:08;;;;;;;12.82;2.90;;;14.10;99.90;;;;;;4976956;28;20039;-35
2023/12/18 01:43:34;;;;;;;11.82;2.45;;;13.70;99.90;;;;;;4975564;28;20034;-36
2023/12/18 01:46:01;;;;;;;10.10;3.45;;;13.60;99.90;;;;;;4976178;28;20133;-38
2023/12/18 01:48:28;;;;;;;8.93;2.83;;;13.80;99.90;;;;;;4975492;28;20071;-35
2023/12/18 01:50:54;;;;;;;9.10;2.50;;;13.80;99.90;;;;;;4976793;28;20038;-35
2023/12/18 01:53:25;;;;;;;9.05;2.45;;;13.90;99.90;;;;;;4976429;28;20042;-37
2023/12/18 01:55:51;;;;;;;8.48;2.70;;;14.30;99.90;;;;;;4976315;28;20104;-35
2023/12/18 01:58:18;;;;;;;7.28;2.40;;;14.40;99.90;;;;;;4975097;28;20043;-35
2023/12/18 02:00:44;;;;;;;11.43;2.85;;;14.00;99.90;;;;;;4972810;28;20084;-39
2023/12/18 02:03:10;;;;;;;9.57;2.55;;;13.80;99.90;;;;;;4972141;28;20031;-39
2023/12/18 02:05:37;;;;;;;10.63;2.75;;;14.00;99.90;;;;;;4973373;28;20498;-35
2023/12/18 02:08:04;;;;;;;8.77;2.85;;;14.20;99.90;;;;;;4972061;28;20149;-35
2023/12/18 02:10:32;;;;;;;11.88;3.15;;;;;;;;;;4973724;28;20051;-34
2023/12/18 02:12:58;;;;;;;11.20;3.97;;;13.60;99.90;;;;;;4973271;28;20527;-36
2023/12/18 02:15:23;;;;;;;7.40;2.97;;;14.40;99.90;;;;;;4973259;28;20050;-38
2023/12/18 02:17:49;;;;;;;10.38;3.00;;;13.40;99.90;;;;;;4973227;28;20042;-35
2023/12/18 02:20:15;;;;;;;10.18;2.92;;;14.00;99.90;;;;;;4973224;28;20041;-34
2023/12/18 02:22:47;;;;;;;8.57;2.83;;;14.00;99.90;;;;;;4973404;28;20035;-35
2023/12/18 02:25:15;;;;;;;8.48;2.50;;;13.40;99.90;;;;;;4970107;28;20047;-37
2023/12/18 02:27:40;;;;;;;8.13;2.63;;;13.30;99.90;;;;;;4971857;28;20077;-36
2023/12/18 02:30:07;;;;;;;8.07;3.13;;;14.00;99.90;;;;;;4973083;28;20074;-37
2023/12/18 02:32:35;;;;;;;9.73;2.63;;;14.30;99.90;;;;;;4973069;28;20098;-36
2023/12/18 02:35:01;;;;;;;10.23;3.00;;;14.00;99.90;;;;;;4970765;28;20038;-37
2023/12/18 02:37:27;;;;;;;10.25;2.80;;;13.60;99.90;;;;;;4955907;28;20426;-38
2023/12/18 02:39:54;;;;;;;9.52;3.45;;;14.10;99.90;;;;;;4971481;28;20073;-35
2023/12/18 02:42:20;;;;;;;9.40;2.88;;;13.40;99.90;;;;;;4972890;28;20530;-35
2023/12/18 02:44:45;;;;;;;8.90;2.78;;;13.70;99.90;;;;;;4969670;28;20085;-37
2023/12/18 02:47:11;;;;;;;9.48;2.60;;;14.40;99.90;;;;;;4971868;28;20096;-35
2023/12/18 02:49:36;;;;;;;11.18;3.30;;;14.40;99.90;;;;;;4972936;28;20659;-35
2023/12/18 02:52:02;;;;;;;11.45;3.05;;;13.70;99.90;;;;;;4971492;28;20038;-35
2023/12/18 02:54:28;;;;;;;10.82;2.40;;;13.80;99.90;;;;;;4972515;28;20177;-40
2023/12/18 02:56:53;;;;;;;8.45;2.63;;;14.30;99.90;;;;;;4972102;28;20041;-35
2023/12/18 02:59:19;;;;;;;8.13;2.40;;;14.00;99.90;;;;;;4971327;28;20039;-35
2023/12/18 03:01:44;;;;;;;10.60;3.40;;;13.80;99.90;;;;;;4968179;28;20121;-37
2023/12/18 03:04:10;;;;;;;7.88;2.50;;;14.20;99.90;;;;;;4971224;28;20031;-38
2023/12/18 03:06:35;;;;;;;8.68;2.75;;;14.30;99.90;;;;;;4971905;28;20526;-35
2023/12/18 03:09:01;;;;;;;9.25;2.60;;;14.80;99.90;;;;;;4967083;28;20035;-35
2023/12/18 03:11:27;;;;;;;9.82;2.90;;;13.90;99.90;;;;;;4965206;28;20058;-35
2023/12/18 03:13:52;;;;;;;12.95;2.95;;;14.00;99.90;;;;;;4970323;28;20537;-37
2023/12/18 03:16:18;;;;;;;9.65;2.50;;;13.80;99.90;;;;;;4961385;28;20043;-35
2023/12/18 03:18:43;;;;;;;8.05;3.45;;;14.30;99.90;;;;;;4969442;28;20108;-35
2023/12/18 03:21:12;;;;;;;9.13;2.85;;;13.70;99.90;;;;;;4968440;28;20034;-37
2023/12/18 03:23:37;;;;;;;9.32;2.60;;;14.00;99.90;;;;;;4969700;28;20042;-35
2023/12/18 03:26:03;;;;;;;10.27;2.70;;;14.10;99.90;;;;;;4968570;28;20051;-39
2023/12/18 03:28:29;;;;;;;8.60;2.45;;;13.60;99.90;;;;;;4972015;28;20035;-38
2023/12/18 03:30:54;;;;;;;9.32;2.88;;;14.00;99.90;;;;;;4971641;28;20037;-35
2023/12/18 03:33:20;;;;;;;9.25;2.70;;;13.50;99.90;;;;;;4971691;28;20391;-35
2023/12/18 03:35:46;;;;;;;9.98;2.50;;;14.20;99.90;;;;;;4971528;28;20089;-38
2023/12/18 03:38:14;;;;;;;11.45;2.80;;;14.00;99.90;;;;;;4970330;28;20047;-34
2023/12/18 03:40:40;;;;;;;8.90;2.67;;;14.00;99.90;;;;;;4971968;28;20042;-36
2023/12/18 03:43:05;;;;;;;7.20;2.70;;;13.80;99.90;;;;;;4976037;28;20092;-35
2023/12/18 03:45:31;;;;;;;10.50;2.63;;;13.90;99.90;;;;;;4971428;28;20039;-34
2023/12/18 03:47:57;;;;;;;7.55;3.08;;;13.40;99.90;;;;;;4971338;28;20042;-35
2023/12/18 03:50:22;;;;;;;9.68;2.72;;;13.60;99.90;;;;;;4970248;28;20113;-37
2023/12/18 03:52:48;;;;;;;11.07;2.40;;;14.00;99.90;;;;;;4954790;28;20098;-34
2023/12/18 03:55:13;;;;;;;8.82;2.58;;;14.10;99.90;;;;;;4970802;28;20461;-35
2023/12/18 03:57:39;;;;;;;10.25;2.47;;;14.00;99.90;;;;;;4970423;28;20047;-35
2023/12/18 04:00:06;;;;;;;9.73;2.78;;;13.60;99.90;;;;;;4969995;28;20073;-38
2023/12/18 04:02:31;;;;;;;6.80;2.33;;;14.00;99.90;;;;;;4971510;28;20038;-36
2023/12/18 04:04:57;;;;;;;11.77;2.67;;;14.00;99.90;;;;;;4970921;28;20050;-38
2023/12/18 04:07:23;;;;;;;7.78;2.97;;;14.50;99.90;;;;;;4971301;28;20035;-34
2023/12/18 04:09:48;;;;;;;7.97;3.10;;;13.90;99.90;;;;;;4968090;28;20060;-36
2023/12/18 04:12:14;;;;;;;7.25;2.70;;;14.10;99.90;;;;;;4969728;28;20061;-39
2023/12/18 04:14:42;;;;;;;11.15;3.10;;;14.20;99.90;;;;;;4971460;28;20034;-34
2023/12/18 04:17:08;;;;;;;8.82;2.67;;;13.70;99.90;;;;;;4968296;28;20086;-36
2023/12/18 04:19:33;;;;;;;11.48;2.80;;;14.00;99.90;;;;;;4970993;28;20133;-37
2023/12/18 04:21:59;;;;;;;12.27;2.97;;;13.60;99.90;;;;;;4970837;28;20039;-34
2023/12/18 04:24:24;;;;;;;11.80;4.15;;;14.30;99.90;;;;;;4971098;28;20481;-38
2023/12/18 04:26:50;;;;;;;8.75;2.80;;;14.70;99.90;;;;;;4970933;28;20027;-35
2023/12/18 04:29:17;;;;;;;12.23;2.50;;;14.40;99.90;;;;;;4970573;28;20549;-35
2023/12/18 04:31:43;;;;;;;12.88;2.60;;;13.90;99.90;;;;;;4971218;28;20046;-37
2023/12/18 04:34:08;;;;;;;8.30;2.80;;;14.30;99.90;;;;;;4970574;28;20043;-35
2023/12/18 04:36:40;;;;;;;9.38;2.45;;;13.50;99.90;;;;;;4970883;28;20458;-35
2023/12/18 04:39:06;;;;;;;9.25;2.22;;;14.10;99.90;;;;;;4975399;28;20171;-38
2023/12/18 04:41:32;;;;;;;7.55;2.72;;;14.40;99.90;;;;;;4970706;28;20050;-36
2023/12/18 04:43:57;;;;;;;7.22;2.33;;;13.60;99.90;;;;;;4970895;28;20030;-38
2023/12/18 04:46:24;;;;;;;11.38;3.33;;;14.20;99.90;;;;;;4969835;28;20486;-35
2023/12/18 04:48:49;;;;;;;9.07;2.53;;;14.00;99.90;;;;;;4971277;28;20038;-38
2023/12/18 04:51:16;;;;;;;8.75;2.33;;;14.20;99.90;;;;;;4970068;28;20078;-38
2023/12/18 04:53:42;;;;;;;10.02;2.85;;;14.50;99.90;;;;;;4970847;28;20077;-38
2023/12/18 04:56:07;;;;;;;9.25;2.75;;;14.40;99.90;;;;;;4970071;28;20047;-35
2023/12/18 04:58:35;;;;;;;9.40;2.13;;;13.60;99.90;;;;;;4970569;28;20035;-35
2023/12/18 05:01:02;;;;;;;8.70;2.70;;;14.10;99.90;;;;;;4957284;28;20050;-36
2023/12/18 05:03:27;;;;;;;10.02;2.90;;;14.80;99.90;;;;;;4963776;28;20455;-36
2023/12/18 05:05:53;;;;;;;8.18;2.15;;;13.80;99.90;;;;;;4963310;28;20122;-39
2023/12/18 05:08:18;;;;;;;9.43;2.95;;;13.90;99.90;;;;;;4967783;28;20109;-38
2023/12/18 05:10:44;;;;;;;8.10;2.42;;;14.10;99.90;;;;;;4966066;28;20379;-35
2023/12/18 05:13:10;;;;;;;9.40;2.53;;;14.20;99.90;;;;;;4969948;28;20066;-36
2023/12/18 05:15:36;;;;;;;8.63;2.40;;;14.00;99.90;;;;;;4969986;28;20039;-36
2023/12/18 05:18:01;;;;;;;12.98;2.92;;;14.00;99.90;;;;;;4971016;28;20038;-37
2023/12/18 05:20:27;;;;;;;9.85;2.38;;;13.60;99.90;;;;;;4968222;28;20109;-37
2023/12/18 05:22:53;;;;;;;11.55;3.40;;;13.70;99.90;;;;;;4970956;28;20043;-36
2023/12/18 05:25:18;;;;;;;11.57;3.10;;;14.50;99.90;;;;;;4969348;28;20039;-34
2023/12/18 05:27:44;;;;;;;9.77;2.20;;;14.30;99.90;;;;;;4970634;28;20407;-36
2023/12/18 05:30:10;;;;;;;12.77;3.60;;;14.20;99.90;;;;;;4969646;28;20046;-38
2023/12/18 05:32:36;;;;;;;22.92;4.10;;;13.90;99.90;;;;;;4967368;28;20086;-35
2023/12/18 05:35:02;;;;;;;15.70;4.30;;;13.80;99.90;;;;;;4980426;28;20097;-34
2023/12/18 05:37:28;;;;;;;46.05;12.02;;;13.90;99.90;;;;;;4973963;28;20448;-36
2023/12/18 05:39:54;;;;;;;76.18;23.40;;;14.20;1.00;;;;;;4971043;28;20070;-36
2023/12/18 05:42:19;;;;;;;71.93;18.75;;;14.50;1.00;;;;;;4968287;28;20081;-35
2023/12/18 05:44:48;;;;;;;40.67;15.10;;;14.50;1.00;;;;;;4968919;28;20039;-36
2023/12/18 05:47:13;;;;;;;36.05;10.23;;;14.30;99.90;;;;;;4972912;28;20039;-37
2023/12/18 05:49:39;;;;;;;38.53;10.25;;;14.20;1.00;;;;;;4971316;28;20031;-36
2023/12/18 05:52:05;;;;;;;32.78;8.98;;;14.40;1.00;;;;;;4971547;28;20062;-35
2023/12/18 05:54:31;;;;;;;27.73;8.30;;;14.30;1.00;;;;;;4962497;28;20494;-35
2023/12/18 05:56:57;;;;;;;29.90;8.45;;;14.70;1.00;;;;;;4970922;28;20094;-35
2023/12/18 05:59:23;;;;;;;28.58;7.32;;;15.00;1.00;;;;;;4972672;28;20049;-34
2023/12/18 06:01:48;;;;;;;22.67;7.38;;;14.70;1.00;;;;;;4972489;28;20418;-35
2023/12/18 06:04:14;;;;;;;22.88;6.75;;;14.70;1.00;;;;;;4971408;28;20089;-37
2023/12/18 06:06:39;;;;;;;21.23;6.25;;;14.40;1.00;;;;;;4970190;28;20042;-35
2023/12/18 06:09:05;;;;;;;21.60;6.35;;;14.20;1.00;;;;;;4967933;28;20066;-34
2023/12/18 06:11:33;;;;;;;19.27;6.22;;;14.70;1.00;;;;;;4971703;28;20089;-35
2023/12/18 06:13:59;;;;;;;18.73;6.38;;;14.20;1.00;;;;;;4969500;28;20042;-38
2023/12/18 06:16:24;;;;;;;17.77;5.88;;;14.10;1.00;;;;;;4987137;28;20494;-35
2023/12/18 06:18:50;;;;;;;21.95;6.82;;;14.40;1.00;;;;;;4969385;28;20387;-35
2023/12/18 06:21:15;;;;;;;16.02;5.47;;;14.40;1.00;;;;;;4969312;28;20050;-35
2023/12/18 06:23:43;;;;;;;16.45;4.93;;;14.30;1.00;;;;;;4973003;28;20074;-37
2023/12/18 06:26:09;;;;;;;16.52;5.82;;;14.60;1.00;;;;;;4986991;28;20038;-39
2023/12/18 06:28:35;;;;;;;15.32;4.57;;;14.50;1.00;;;;;;4972731;28;20407;-34
2023/12/18 06:31:00;;;;;;;13.70;4.88;;;14.40;1.00;;;;;;4973122;28;20079;-34
2023/12/18 06:33:26;;;;;;;16.50;4.90;;;14.60;1.00;;;;;;4972860;28;20506;-35
2023/12/18 06:35:52;;;;;;;12.68;4.43;;;14.50;1.00;;;;;;4972853;28;20038;-35
2023/12/18 06:38:17;;;;;;;16.15;4.30;;;14.40;1.00;;;;;;4972817;28;20442;-35
2023/12/18 06:40:43;;;;;;;16.02;3.97;;;14.40;1.00;;;;;;4972085;28;20106;-35
2023/12/18 06:43:09;;;;;;;13.40;3.63;;;14.10;1.00;;;;;;4987547;28;20046;-35
2023/12/18 06:45:34;;;;;;;17.42;4.60;;;14.20;1.00;;;;;;4971746;28;20066;-37
2023/12/18 06:48:00;;;;;;;14.15;4.72;;;14.20;1.00;;;;;;4987209;28;20038;-35
2023/12/18 06:50:25;;;;;;;17.83;4.50;;;14.20;1.00;;;;;;4971609;28;20042;-38
2023/12/18 06:52:51;;;;;;;10.52;3.10;;;14.80;1.00;;;;;;4965113;28;20435;-34
2023/12/18 06:55:17;;;;;;;10.88;3.95;;;15.40;1.00;;;;;;4971065;28;20490;-35
2023/12/18 06:57:43;;;;;;;13.68;3.50;;;14.40;1.00;;;;;;4965756;28;20062;-37
2023/12/18 07:00:09;;;;;;;11.65;3.88;;;14.40;1.00;;;;;;4969852;28;20181;-37
2023/12/18 07:02:35;;;;;;;13.95;3.22;;;14.40;1.00;;;;;;4965039;28;20097;-38
2023/12/18 07:05:01;;;;;;;10.25;2.97;;;14.70;1.00;;;;;;4967484;28;20054;-39
2023/12/18 07:07:27;;;;;;;11.57;3.30;;;14.00;1.00;;;;;;4968292;28;20039;-35
2023/12/18 07:09:53;;;;;;;10.27;3.08;;;14.60;1.00;;;;;;4967241;28;20066;-34
2023/12/18 07:12:18;;;;;;;9.98;2.78;;;14.40;1.00;;;;;;4970914;28;20414;-35
2023/12/18 07:14:44;;;;;;;10.18;3.17;;;14.20;1.00;;;;;;4972095;28;20046;-36
2023/12/18 07:17:10;;;;;;;13.02;3.67;;;14.50;1.00;;;;;;4971732;28;20529;-38
2023/12/18 07:19:39;;;;;;;10.30;3.28;;;14.10;1.00;;;;;;4972153;28;20042;-34
2023/12/18 07:22:05;;;;;;;10.40;3.10;;;14.50;1.00;;;;;;4972205;28;20047;-35
2023/12/18 07:24:31;;;;;;;9.60;3.30;;;14.00;1.00;;;;;;4970951;28;20074;-35
2023/12/18 07:26:56;;;;;;;10.40;3.25;;;14.20;1.00;;;;;;4971555;28;20058;-38
2023/12/18 07:29:22;;;;;;;10.88;3.45;;;14.10;1.00;;;;;;4971450;28;20042;-35
2023/12/18 07:31:48;;;;;;;11.25;3.60;;;14.30;1.00;;;;;;4972329;28;20027;-35
2023/12/18 07:34:13;;;;;;;10.18;3.15;;;14.50;1.00;;;;;;4970353;28;20442;-35
2023/12/18 07:36:40;;;;;;;9.95;3.28;;;14.50;1.00;;;;;;4971373;28;20446;-38
2023/12/18 07:39:06;;;;;;;9.80;3.05;;;14.30;1.00;;;;;;4970511;28;20105;-35
2023/12/18 07:41:32;;;;;;;12.05;3.47;;;14.10;1.00;;;;;;4970004;28;20075;-35
2023/12/18 07:43:57;;;;;;;9.90;3.13;;;14.80;1.00;;;;;;4970766;28;20121;-37
2023/12/18 07:46:23;;;;;;;11.40;4.35;;;14.40;1.00;;;;;;4968424;28;20097;-34
2023/12/18 07:48:49;;;;;;;9.18;3.40;;;15.30;1.00;;;;;;4971818;28;20039;-35
2023/12/18 07:51:16;;;;;;;12.70;4.60;;;14.20;1.00;;;;;;4970296;28;20073;-35
2023/12/18 07:53:41;;;;;;;8.80;3.72;;;14.40;1.00;;;;;;4971445;28;20035;-35
2023/12/18 07:56:07;;;;;;;13.80;4.22;;;14.30;1.00;;;;;;4970625;28;20465;-35
2023/12/18 07:58:33;;;;;;;11.68;4.18;;;13.90;1.00;;;;;;4969353;28;20089;-35
2023/12/18 08:01:00;;;;;;;8.73;3.60;;;14.30;1.00;;;;;;4966469;28;20048;-36
2023/12/18 08:03:26;;;;;;;9.68;4.28;;;13.80;1.00;;;;;;4965648;28;20050;-35
2023/12/18 08:05:52;;;;;;;10.52;5.05;;;14.10;1.00;;;;;;4965925;28;20042;-34
2023/12/18 08:08:17;;;;;;;9.10;4.60;;;14.40;1.00;;;;;;4981212;28;20514;-37
2023/12/18 08:10:43;;;;;;;11.55;4.55;;;14.50;1.00;;;;;;4965553;28;20042;-39
2023/12/18 08:13:09;;;;;;;10.68;4.20;;;14.20;1.00;;;;;;4970385;28;20031;-35
2023/12/18 08:15:34;;;;;;;10.77;4.10;;;14.80;1.00;;;;;;4970098;28;20498;-34
2023/12/18 08:18:00;;;;;;;11.55;3.75;;;14.30;1.00;;;;;;4971510;28;20035;-35
2023/12/18 08:20:25;;;;;;;11.82;4.00;;;14.30;1.00;;;;;;4970877;28;20043;-37
2023/12/18 08:22:51;;;;;;;11.85;4.13;;;14.10;1.00;;;;;;4971611;28;20035;-34
2023/12/18 08:25:17;;;;;;;10.93;4.30;;;14.50;1.00;;;;;;4970450;28;20043;-34
2023/12/18 08:27:43;;;;;;;8.60;3.95;;;14.20;1.00;;;;;;4971167;28;20035;-35
2023/12/18 08:30:10;;;;;;;9.25;4.47;;;13.80;1.00;;;;;;4971354;28;20038;-35
2023/12/18 08:32:37;;;;;;;10.65;3.67;;;14.30;1.00;;;;;;4970890;28;20046;-35
2023/12/18 08:35:02;;;;;;;13.15;4.82;;;14.40;1.00;;;;;;4969435;28;20046;-36
2023/12/18 08:37:28;;;;;;;7.95;4.15;;;14.10;1.00;;;;;;4969378;28;20031;-37
2023/12/18 08:39:54;;;;;;;10.23;4.53;;;14.30;1.00;;;;;;4971031;28;20042;-35
2023/12/18 08:42:20;;;;;;;9.00;3.63;;;14.60;1.00;;;;;;4971218;28;20039;-34
2023/12/18 08:44:45;;;;;;;10.55;3.97;;;14.40;1.00;;;;;;4970725;28;20035;-35
2023/12/18 08:47:11;;;;;;;9.25;4.68;;;14.80;1.00;;;;;;4970588;28;20043;-36
2023/12/18 08:49:38;;;;;;;10.18;4.38;;;14.50;1.00;;;;;;4982648;28;20042;-35
2023/12/18 08:52:04;;;;;;;13.85;5.03;;;14.70;1.00;;;;;;4971038;28;20043;-37
2023/12/18 08:54:29;;;;;;;9.60;4.47;;;14.20;1.00;;;;;;4970147;28;20047;-40
2023/12/18 08:56:55;;;;;;;11.80;4.47;;;14.40;1.00;;;;;;4970740;28;20050;-35
2023/12/18 08:59:20;;;;;;;11.30;5.30;;;14.30;1.00;;;;;;4969729;28;20053;-37
2023/12/18 09:01:46;;;;;;;11.98;4.53;;;14.40;1.00;;;;;;4970932;28;20039;-36
2023/12/18 09:04:11;;;;;;;11.35;4.25;;;14.30;1.00;;;;;;4970844;28;20031;-35
2023/12/18 09:06:37;;;;;;;13.52;5.47;;;14.00;1.00;;;;;;4970110;28;20085;-35
2023/12/18 09:09:03;;;;;;;10.88;4.90;;;14.60;1.00;;;;;;4967600;28;20057;-36
2023/12/18 09:11:33;;;;;;;10.63;5.10;;;14.60;1.00;;;;;;4974725;28;20039;-37
2023/12/18 09:13:59;;;;;;;11.23;4.68;;;14.30;1.00;;;;;;4973312;28;20499;-36
2023/12/18 09:16:25;;;;;;;12.40;5.75;;;14.30;1.00;;;;;;4973947;28;20491;-37
2023/12/18 09:18:51;;;;;;;10.52;5.22;;;14.30;1.00;;;;;;4974582;28;20059;-36
2023/12/18 09:21:17;;;;;;;12.02;5.03;;;14.30;1.00;;;;;;4973201;28;20052;-37
2023/12/18 09:23:44;;;;;;;10.52;5.95;;;14.50;1.00;;;;;;4974062;28;20054;-35
2023/12/18 09:26:12;;;;;;;9.65;4.72;;;14.70;1.00;;;;;;4974050;28;20051;-35
2023/12/18 09:28:38;;;;;;;10.55;4.93;;;13.60;1.00;;;;;;4974229;28;20039;-38
2023/12/18 09:31:05;;;;;;;13.40;5.68;;;14.60;1.00;;;;;;4973327;28;20063;-35
2023/12/18 09:33:33;;;;;;;11.40;5.80;;;13.90;1.00;;;;;;4974259;28;20056;-35
2023/12/18 09:35:59;;;;;;;13.43;6.47;;;14.00;99.90;;;;;;4973680;28;20034;-38
2023/12/18 09:38:25;;;;;;;11.05;5.68;;;14.30;99.90;;;;;;4974610;28;20039;-36
2023/12/18 09:40:50;;;;;;;13.85;5.35;;;14.00;99.90;;;;;;4972902;28;20402;-34
2023/12/18 09:43:17;;;;;;;11.55;5.18;;;14.00;1.00;;;;;;4974316;28;20042;-38
2023/12/18 09:45:46;;;;;;;13.70;5.40;;;14.10;1.00;;;;;;4973684;28;20039;-36
2023/12/18 09:48:11;;;;;;;12.25;6.45;;;14.00;99.90;;;;;;4973995;28;20117;-36
2023/12/18 09:50:37;;;;;;;12.63;5.78;;;13.40;99.90;;;;;;4973597;28;20475;-35
2023/12/18 09:53:08;;;;;;;10.88;5.47;;;14.00;1.00;;;;;;4974213;28;20051;-36
2023/12/18 09:55:35;;;;;;;10.68;5.28;;;14.20;99.90;;;;;;4973187;28;20502;-35
2023/12/18 09:58:01;;;;;;;12.65;5.72;;;14.20;1.00;;;;;;4956441;28;20038;-35
2023/12/18 10:00:27;;;;;;;12.20;4.80;;;14.00;99.90;;;;;;4973806;28;20053;-35
2023/12/18 10:02:57;;;;;;;9.68;4.53;;;14.30;1.00;;;;;;4987001;28;20490;-36
2023/12/18 10:05:23;;;;;;;10.00;4.63;;;13.50;99.90;;;;;;4973162;28;20042;-35
2023/12/18 10:07:49;;;;;;;10.63;5.32;;;14.50;99.90;;;;;;4973459;28;20039;-37
2023/12/18 10:10:16;;;;;;;11.63;5.22;;;14.00;99.90;;;;;;4969382;28;20388;-35
2023/12/18 10:12:42;;;;;;;10.13;4.80;;;14.50;99.90;;;;;;4973763;28;20381;-39
2023/12/18 10:15:17;;;;;;;8.35;5.00;;;13.50;99.90;;;;;;4973578;28;20069;-35
2023/12/18 10:17:43;;;;;;;12.65;5.90;;;14.40;99.90;;;;;;4973191;28;20039;-37
2023/12/18 10:20:09;;;;;;;13.85;4.90;;;14.20;99.90;;;;;;4972523;28;20502;-36
2023/12/18 10:22:35;;;;;;;12.35;5.30;;;13.60;99.90;;;;;;4973078;28;20046;-35
2023/12/18 10:25:02;;;;;;;10.63;5.18;;;14.20;99.90;;;;;;4972944;28;20042;-37
2023/12/18 10:27:31;;;;;;;11.70;4.85;;;14.50;99.90;;;;;;4973343;28;20046;-35
2023/12/18 10:29:57;;;;;;;9.48;5.10;;;13.70;99.90;;;;;;4973418;28;20447;-37
2023/12/18 10:32:25;;;;;;;11.40;5.13;;;13.70;99.90;;;;;;4971432;28;20042;-36
2023/12/18 10:34:51;;;;;;;14.43;5.22;;;14.40;99.90;;;;;;4972875;28;20039;-37
2023/12/18 10:37:19;;;;;;;13.52;5.40;;;14.10;99.90;;;;;;4972669;28;20065;-35
2023/12/18 10:39:50;;;;;;;12.27;5.38;;;13.90;99.90;;;;;;4972952;28;20401;-35
2023/12/18 10:42:31;;;;;;;9.80;4.68;;;13.90;99.90;;;;;;4973019;28;20045;-35
2023/12/18 10:44:59;;;;;;;10.27;4.95;;;13.60;99.90;;;;;;4970878;28;20046;-35
2023/12/18 10:47:25;;;;;;;8.45;4.80;;;14.00;99.90;;;;;;4971571;28;20410;-37
2023/12/18 10:49:53;;;;;;;11.50;5.45;;;13.60;99.90;;;;;;4972543;28;20109;-36
2023/12/18 10:52:20;;;;;;;9.93;4.60;;;14.40;99.90;;;;;;4972935;28;20047;-34
2023/12/18 10:54:48;;;;;;;10.75;4.85;;;13.60;99.90;;;;;;4972377;28;20086;-35
2023/12/18 10:57:17;;;;;;;13.80;5.45;;;14.20;99.90;;;;;;4972757;28;20495;-38
2023/12/18 10:59:48;;;;;;;11.80;5.78;;;14.00;99.90;;;;;;4972297;28;20529;-35
2023/12/18 11:02:15;;;;;;;13.52;5.30;;;13.90;99.90;;;;;;4972901;28;20053;-34
2023/12/18 11:04:43;;;;;;;10.77;5.22;;;14.20;99.90;;;;;;4972222;28;20507;-37
2023/12/18 11:07:10;;;;;;;11.43;5.63;;;14.00;99.90;;;;;;4972307;28;20042;-35
2023/12/18 11:09:36;;;;;;;9.25;4.90;;;14.30;99.90;;;;;;4971526;28;20130;-35
2023/12/18 11:12:04;;;;;;;11.27;5.82;;;13.60;99.90;;;;;;4953451;28;20042;-34
2023/12/18 11:14:58;;;;;;;10.05;5.07;;;13.90;99.90;;;;;;4955065;28;20047;-38
2023/12/18 11:17:50;;;;;;;11.95;5.45;;;14.00;99.90;;;;;;4971111;28;20049;-36
2023/12/18 11:20:20;;;;;;;13.38;5.40;;;13.90;99.90;;;;;;4971138;28;20055;-37
2023/12/18 11:22:47;;;;;;;11.50;5.20;;;13.80;99.90;;;;;;4971992;28;20509;-37
2023/12/18 11:25:13;;;;;;;10.80;5.50;;;14.00;99.90;;;;;;4971816;28;20406;-35
2023/12/18 11:27:44;;;;;;;10.75;5.32;;;13.90;99.90;;;;;;4970939;28;20034;-36
2023/12/18 11:30:29;;;;;;;11.30;5.15;;;14.10;99.90;;;;;;4972142;28;20553;-34
2023/12/18 11:33:09;;;;;;;9.40;5.18;;;14.30;99.90;;;;;;4972035;28;20034;-35
2023/12/18 11:35:36;;;;;;;13.70;5.28;;;14.00;99.90;;;;;;4971670;28;20438;-35
2023/12/18 11:38:09;;;;;;;10.18;5.18;;;13.90;99.90;;;;;;4971741;28;20093;-35
2023/12/18 11:40:42;;;;;;;10.48;5.38;;;13.90;99.90;;;;;;4986440;28;20042;-35
2023/12/18 11:43:12;;;;;;;11.63;5.53;;;13.80;99.90;;;;;;4971088;28;20418;-35
2023/12/18 11:45:40;;;;;;;14.43;5.78;;;14.80;99.90;;;;;;4971736;28;20047;-35
2023/12/18 11:48:07;;;;;;;10.20;5.32;;;14.00;99.90;;;;;;4984077;28;20421;-36
2023/12/18 11:50:36;;;;;;;12.10;5.72;;;13.90;99.90;;;;;;4971900;28;20086;-36
2023/12/18 11:53:05;;;;;;;8.40;4.65;;;13.80;99.90;;;;;;4970142;28;20046;-34
2023/12/18 11:55:40;;;;;;;12.68;5.50;;;14.30;99.90;;;;;;4984006;28;20129;-38
2023/12/18 11:58:07;;;;;;;12.38;5.00;;;13.80;99.90;;;;;;4969680;28;20057;-35
2023/12/18 12:00:37;;;;;;;12.77;5.65;;;13.90;99.90;;;;;;4971682;28;20042;-36
2023/12/18 12:03:04;;;;;;;13.38;5.63;;;13.80;99.90;;;;;;4971382;28;20130;-37
2023/12/18 12:05:31;;;;;;;11.57;4.82;;;13.80;99.90;;;;;;4971236;28;20049;-35
2023/12/18 12:07:58;;;;;;;10.55;5.35;;;14.00;99.90;;;;;;4971261;28;20070;-35
2023/12/18 12:10:23;;;;;;;11.35;5.20;;;13.30;99.90;;;;;;4968459;28;20081;-37
2023/12/18 12:12:57;;;;;;;10.60;5.57;;;13.80;99.90;;;;;;4971417;28;20054;-37
2023/12/18 12:15:28;;;;;;;9.75;5.03;;;14.00;99.90;;;;;;4969488;28;20093;-35
2023/12/18 12:18:06;;;;;;;11.27;5.30;;;13.70;99.90;;;;;;4971416;28;20113;-36
2023/12/18 12:20:32;;;;;;;12.80;5.30;;;13.80;99.90;;;;;;4970414;28;20053;-37
2023/12/18 12:22:59;;;;;;;11.07;5.05;;;14.30;99.90;;;;;;4970122;28;20046;-35
2023/12/18 12:25:25;;;;;;;12.00;5.75;;;13.80;99.90;;;;;;4969594;28;20409;-34
2023/12/18 12:27:52;;;;;;;9.90;4.55;;;13.40;99.90;;;;;;4971124;28;20070;-35
2023/12/18 12:30:17;;;;;;;11.23;5.25;;;13.30;99.90;;;;;;4970166;28;20117;-34
2023/12/18 12:32:44;;;;;;;11.75;4.47;;;13.90;99.90;;;;;;4969996;28;20554;-35
2023/12/18 12:35:11;;;;;;;10.63;4.93;;;13.50;99.90;;;;;;4968874;28;20042;-36
2023/12/18 12:37:37;;;;;;;11.52;4.53;;;13.60;99.90;;;;;;4967036;28;20509;-35
2023/12/18 12:40:06;;;;;;;14.38;4.97;;;13.60;99.90;;;;;;4969713;28;20053;-37